createdAt,value
2019-03-31T00:01:39.759Z,91.83
2019-03-31T00:04:09.392Z,100.25
2019-03-31T00:06:39.119Z,103.58
2019-03-31T00:09:11.920Z,102.12
2019-03-31T00:11:41.444Z,112.92
2019-03-31T00:14:11.284Z,120.33
2019-03-31T00:16:40.909Z,114.00
2019-03-31T00:19:10.543Z,113.72
2019-03-31T00:21:40.260Z,118.20
2019-03-31T00:24:10.101Z,124.62
2019-03-31T00:26:39.715Z,116.90
2019-03-31T00:29:09.347Z,121.20
2019-03-31T00:31:39.185Z,119.50
2019-03-31T00:34:08.910Z,133.12
2019-03-31T00:36:38.643Z,128.78
2019-03-31T00:39:08.272Z,131.03
2019-03-31T00:41:37.824Z,150.38
2019-03-31T00:44:07.632Z,161.23
2019-03-31T00:46:37.359Z,148.75
2019-03-31T00:49:06.982Z,151.63
2019-03-31T00:51:36.818Z,142.77
2019-03-31T00:54:06.440Z,145.10
2019-03-31T00:56:36.177Z,142.13
2019-03-31T00:59:05.899Z,147.50
2019-03-31T01:01:37.628Z,135.28
2019-03-31T01:04:07.926Z,128.60
2019-03-31T01:06:37.863Z,129.87
2019-03-31T01:09:20.876Z,129.72
2019-03-31T01:11:50.409Z,135.95
2019-03-31T01:14:20.044Z,139.10
2019-03-31T01:16:49.766Z,129.35
2019-03-31T01:19:20.107Z,141.57
2019-03-31T01:21:49.839Z,140.75
2019-03-31T01:24:21.013Z,144.57
2019-03-31T01:26:50.598Z,126.00
2019-03-31T01:29:20.262Z,125.40
2019-03-31T01:31:50.928Z,132.35
2019-03-31T01:34:20.533Z,135.25
2019-03-31T01:36:50.265Z,146.10
2019-03-31T01:39:21.420Z,145.20
2019-03-31T01:41:51.055Z,128.32
2019-03-31T01:44:20.681Z,145.07
2019-03-31T01:46:50.315Z,136.92
2019-03-31T01:49:19.942Z,136.70
2019-03-31T01:51:49.563Z,141.13
2019-03-31T01:54:19.097Z,135.17
2019-03-31T01:56:48.817Z,131.47
2019-03-31T01:59:18.450Z,138.70
2019-03-31T02:01:48.181Z,137.77
2019-03-31T02:04:17.807Z,156.33
2019-03-31T02:06:47.436Z,129.03
2019-03-31T02:09:18.082Z,133.07
2019-03-31T02:11:47.921Z,140.80
2019-03-31T02:14:17.547Z,113.97
2019-03-31T02:16:47.375Z,110.32
2019-03-31T02:19:17.000Z,115.28
2019-03-31T02:21:46.636Z,116.82
2019-03-31T02:24:16.163Z,117.97
2019-03-31T02:26:45.780Z,131.12
2019-03-31T02:29:15.297Z,137.30
2019-03-31T02:31:44.942Z,123.60
2019-03-31T02:34:14.464Z,125.82
2019-03-31T02:36:44.221Z,129.43
2019-03-31T02:39:14.060Z,129.15
2019-03-31T02:41:43.666Z,129.07
2019-03-31T02:44:13.393Z,130.73
2019-03-31T02:46:43.014Z,133.63
2019-03-31T02:49:12.532Z,144.20
2019-03-31T02:51:42.181Z,137.57
2019-03-31T02:54:11.825Z,128.03
2019-03-31T02:56:41.425Z,130.05
2019-03-31T02:59:11.353Z,126.97
2019-03-31T03:01:41.083Z,124.80
2019-03-31T03:04:10.573Z,121.47
2019-03-31T03:06:40.138Z,119.75
2019-03-31T03:09:09.870Z,125.95
2019-03-31T03:11:39.492Z,118.70
2019-03-31T03:14:09.121Z,118.43
2019-03-31T03:16:38.687Z,118.60
2019-03-31T03:19:08.383Z,123.18
2019-03-31T03:21:38.004Z,117.87
2019-03-31T03:24:07.737Z,121.43
2019-03-31T03:26:37.463Z,121.05
2019-03-31T03:29:06.982Z,118.25
2019-03-31T03:31:36.614Z,118.80
2019-03-31T03:34:06.169Z,125.35
2019-03-31T03:36:36.797Z,124.12
2019-03-31T03:39:07.953Z,136.55
2019-03-31T03:41:37.462Z,165.07
2019-03-31T03:44:08.034Z,135.63
2019-03-31T03:46:37.560Z,125.60
2019-03-31T03:49:07.166Z,123.90
2019-03-31T03:51:37.025Z,135.45
2019-03-31T03:54:06.544Z,135.65
2019-03-31T03:56:36.024Z,139.82
2019-03-31T03:59:05.600Z,136.37
2019-03-31T04:01:35.427Z,128.85
2019-03-31T04:04:05.121Z,125.50
2019-03-31T04:06:34.884Z,134.10
2019-03-31T04:09:06.468Z,127.32
2019-03-31T04:11:36.294Z,121.53
2019-03-31T04:14:05.811Z,125.60
2019-03-31T04:16:35.337Z,123.83
2019-03-31T04:19:04.859Z,122.53
2019-03-31T04:21:34.393Z,124.57
2019-03-31T04:26:34.013Z,115.70
2019-03-31T04:29:03.614Z,111.42
2019-03-31T04:31:33.320Z,108.85
2019-03-31T04:34:02.944Z,108.67
2019-03-31T04:36:32.566Z,109.27
2019-03-31T04:39:02.155Z,106.20
2019-03-31T04:41:32.742Z,106.47
2019-03-31T04:44:02.265Z,107.43
2019-03-31T04:46:31.890Z,107.93
2019-03-31T04:49:01.413Z,108.22
2019-03-31T04:51:30.943Z,109.63
2019-03-31T04:54:00.572Z,104.83
2019-03-31T04:56:30.095Z,102.27
2019-03-31T04:58:59.613Z,108.07
2019-03-31T05:01:29.246Z,103.47
2019-03-31T05:04:04.865Z,99.85
2019-03-31T05:06:29.824Z,96.57
2019-03-31T05:08:59.550Z,95.97
2019-03-31T05:11:29.299Z,124.72
2019-03-31T05:13:58.915Z,114.03
2019-03-31T05:16:28.593Z,89.13
2019-03-31T05:18:58.180Z,87.57
2019-03-31T05:21:27.700Z,88.92
2019-03-31T05:23:57.336Z,86.23
2019-03-31T05:26:26.951Z,92.17
2019-03-31T05:28:56.483Z,96.27
2019-03-31T05:31:26.109Z,86.87
2019-03-31T05:33:55.635Z,86.47
2019-03-31T05:36:25.260Z,86.70
2019-03-31T05:38:54.790Z,84.53
2019-03-31T05:41:24.310Z,84.00
2019-03-31T05:44:05.145Z,87.97
2019-03-31T05:46:25.205Z,81.78
2019-03-31T05:48:54.729Z,78.92
2019-03-31T05:51:24.359Z,75.50
2019-03-31T05:53:53.984Z,75.70
2019-03-31T05:56:24.653Z,75.90
2019-03-31T05:58:55.489Z,73.50
2019-03-31T06:01:25.329Z,75.42
2019-03-31T06:03:54.952Z,72.80
2019-03-31T06:06:24.692Z,71.40
2019-03-31T06:08:54.413Z,72.75
2019-03-31T06:11:24.014Z,69.70
2019-03-31T06:13:53.668Z,71.65
2019-03-31T06:16:23.290Z,69.72
2019-03-31T06:18:52.919Z,69.17
2019-03-31T06:21:22.631Z,65.80
2019-03-31T06:23:52.380Z,66.40
2019-03-31T06:26:22.109Z,62.45
2019-03-31T06:28:51.948Z,60.73
2019-03-31T06:31:21.782Z,60.60
2019-03-31T06:33:51.916Z,59.53
2019-03-31T06:36:21.749Z,58.35
2019-03-31T06:38:52.546Z,56.15
2019-03-31T06:41:22.347Z,56.27
2019-03-31T06:43:52.370Z,51.55
2019-03-31T06:46:22.202Z,51.98
2019-03-31T06:48:52.042Z,50.17
2019-03-31T06:51:21.753Z,49.23
2019-03-31T06:53:51.597Z,47.83
2019-03-31T06:56:21.495Z,44.42
2019-03-31T06:58:52.422Z,40.88
2019-03-31T07:01:22.223Z,36.80
2019-03-31T07:03:51.948Z,34.48
2019-03-31T07:06:23.315Z,30.40
2019-03-31T07:08:53.030Z,31.95
2019-03-31T07:11:22.732Z,34.23
2019-03-31T07:13:52.509Z,32.88
2019-03-31T07:16:22.215Z,30.12
2019-03-31T07:18:53.608Z,29.23
2019-03-31T07:21:23.344Z,27.25
2019-03-31T07:23:53.059Z,25.50
2019-03-31T07:26:22.900Z,23.47
2019-03-31T07:28:52.626Z,24.82
2019-03-31T07:31:22.591Z,25.35
2019-03-31T07:33:53.520Z,25.12
2019-03-31T07:36:23.349Z,25.20
2019-03-31T07:38:53.243Z,25.32
2019-03-31T07:41:23.186Z,24.07
2019-03-31T07:43:52.941Z,27.87
2019-03-31T07:46:24.728Z,25.23
2019-03-31T07:48:54.453Z,26.70
2019-03-31T07:51:24.290Z,23.77
2019-03-31T07:53:54.333Z,23.77
2019-03-31T07:56:24.167Z,25.05
2019-03-31T07:58:53.995Z,26.77
2019-03-31T08:01:23.761Z,25.20
2019-03-31T08:03:53.556Z,22.93
2019-03-31T08:06:23.389Z,23.87
2019-03-31T08:08:53.567Z,22.45
2019-03-31T08:11:24.483Z,22.58
2019-03-31T08:13:55.350Z,22.22
2019-03-31T08:16:25.358Z,21.37
2019-03-31T08:18:56.542Z,21.07
2019-03-31T08:21:26.369Z,21.82
2019-03-31T08:23:56.100Z,20.60
2019-03-31T08:26:25.933Z,22.13
2019-03-31T08:28:58.520Z,21.17
2019-03-31T08:31:27.239Z,21.12
2019-03-31T08:33:57.066Z,20.10
2019-03-31T08:36:26.762Z,21.07
2019-03-31T08:38:56.539Z,21.17
2019-03-31T08:41:26.360Z,19.60
2019-03-31T08:43:56.604Z,19.77
2019-03-31T08:46:27.779Z,20.02
2019-03-31T08:48:58.619Z,18.37
2019-03-31T08:51:28.355Z,17.67
2019-03-31T08:53:59.101Z,18.07
2019-03-31T08:56:28.754Z,19.40
2019-03-31T08:58:58.460Z,17.98
2019-03-31T09:01:28.088Z,18.60
2019-03-31T09:03:57.714Z,18.95
2019-03-31T09:06:27.447Z,18.05
2019-03-31T09:08:57.171Z,18.40
2019-03-31T09:11:27.011Z,17.92
2019-03-31T09:16:25.758Z,17.80
2019-03-31T09:18:55.480Z,18.80
2019-03-31T09:21:26.130Z,18.15
2019-03-31T09:23:57.224Z,18.57
2019-03-31T09:26:27.052Z,19.57
2019-03-31T09:28:56.862Z,18.65
2019-03-31T09:31:26.589Z,18.35
2019-03-31T09:33:56.317Z,18.82
2019-03-31T09:36:26.163Z,19.05
2019-03-31T09:38:56.112Z,19.10
2019-03-31T09:43:55.036Z,19.87
2019-03-31T09:46:25.790Z,18.50
2019-03-31T09:48:55.427Z,18.23
2019-03-31T09:51:25.142Z,18.05
2019-03-31T09:53:54.884Z,16.12
2019-03-31T09:56:25.848Z,17.25
2019-03-31T10:01:26.284Z,16.90
2019-03-31T10:03:57.171Z,17.20
2019-03-31T10:06:30.589Z,17.02
2019-03-31T10:08:58.477Z,16.10
2019-03-31T10:13:57.734Z,16.20
2019-03-31T10:16:27.454Z,16.27
2019-03-31T10:18:57.227Z,15.93
2019-03-31T10:23:56.346Z,15.35
2019-03-31T10:28:58.364Z,17.30
2019-03-31T10:31:28.193Z,17.92
2019-03-31T10:33:57.925Z,17.65
2019-03-31T10:36:27.975Z,18.45
2019-03-31T10:38:58.620Z,16.97
2019-03-31T10:41:30.987Z,18.23
2019-03-31T10:43:59.759Z,19.37
2019-03-31T10:46:29.638Z,19.30
2019-03-31T10:48:59.511Z,18.75
2019-03-31T10:51:29.314Z,21.30
2019-03-31T10:53:59.040Z,20.90
2019-03-31T10:56:28.790Z,20.92
2019-03-31T10:58:58.705Z,19.80
2019-03-31T11:01:28.332Z,20.65
2019-03-31T11:03:58.070Z,23.75
2019-03-31T11:06:27.896Z,23.42
2019-03-31T11:08:58.973Z,26.57
2019-03-31T11:11:34.546Z,23.98
2019-03-31T11:14:06.701Z,23.35
2019-03-31T11:16:36.425Z,25.40
2019-03-31T11:19:06.056Z,24.63
2019-03-31T11:21:40.302Z,23.65
2019-03-31T11:24:08.544Z,23.38
2019-03-31T11:26:38.155Z,25.70
2019-03-31T11:29:07.666Z,24.15
2019-03-31T11:31:37.266Z,22.30
2019-03-31T11:34:06.920Z,22.82
2019-03-31T11:36:37.806Z,21.50
2019-03-31T11:39:08.067Z,21.95
2019-03-31T11:41:37.586Z,21.05
2019-03-31T11:44:08.195Z,21.23
2019-03-31T11:46:41.030Z,21.40
2019-03-31T11:49:10.904Z,19.73
2019-03-31T11:51:40.639Z,17.23
2019-03-31T11:54:10.272Z,16.05
2019-03-31T11:56:41.786Z,16.07
2019-03-31T11:59:11.464Z,15.53
2019-03-31T12:01:41.375Z,15.68
2019-03-31T12:04:12.655Z,15.23
2019-03-31T12:06:42.291Z,14.90
2019-03-31T12:09:14.310Z,15.00
2019-03-31T12:11:45.711Z,15.10
2019-03-31T12:14:15.563Z,15.15
2019-03-31T12:16:45.311Z,14.85
2019-03-31T12:19:14.927Z,15.13
2019-03-31T12:21:44.662Z,13.88
2019-03-31T12:24:14.382Z,14.07
2019-03-31T12:26:44.008Z,14.45
2019-03-31T12:29:13.876Z,15.13
2019-03-31T12:31:43.679Z,13.75
2019-03-31T12:34:16.892Z,14.07
2019-03-31T12:36:46.881Z,14.10
2019-03-31T12:39:16.554Z,12.28
2019-03-31T12:41:46.279Z,12.53
2019-03-31T12:44:17.141Z,12.60
2019-03-31T12:46:46.775Z,12.28
2019-03-31T12:49:16.494Z,11.05
2019-03-31T12:51:46.333Z,12.07
2019-03-31T12:54:16.052Z,12.35
2019-03-31T12:56:47.709Z,11.90
2019-03-31T12:59:18.375Z,11.65
2019-03-31T13:01:48.028Z,11.75
2019-03-31T13:06:47.559Z,11.35
2019-03-31T13:09:17.509Z,10.80
2019-03-31T13:14:16.460Z,10.63
2019-03-31T13:16:46.798Z,11.80
2019-03-31T13:19:16.551Z,11.73
2019-03-31T13:21:53.414Z,10.50
2019-03-31T13:24:23.152Z,11.15
2019-03-31T13:26:52.768Z,10.38
2019-03-31T13:29:22.610Z,9.33
2019-03-31T13:31:53.151Z,10.38
2019-03-31T13:34:22.888Z,11.15
2019-03-31T13:36:52.628Z,10.95
2019-03-31T13:39:22.244Z,10.40
2019-03-31T13:41:51.981Z,11.83
2019-03-31T13:44:21.749Z,10.80
2019-03-31T13:46:51.555Z,9.53
2019-03-31T13:49:21.374Z,10.30
2019-03-31T13:51:52.131Z,11.05
2019-03-31T13:54:21.756Z,10.30
2019-03-31T13:56:52.118Z,10.23
2019-03-31T13:59:22.440Z,10.08
2019-03-31T14:01:52.073Z,9.90
2019-03-31T14:04:21.916Z,10.00
2019-03-31T14:06:51.738Z,10.18
2019-03-31T14:09:21.468Z,10.00
2019-03-31T14:11:51.301Z,13.83
2019-03-31T14:14:21.030Z,15.40
2019-03-31T14:16:50.753Z,16.17
2019-03-31T14:19:21.514Z,18.27
2019-03-31T14:21:51.210Z,16.73
2019-03-31T14:24:20.862Z,20.10
2019-03-31T14:26:50.625Z,18.05
2019-03-31T14:29:20.426Z,17.25
2019-03-31T14:31:51.982Z,16.02
2019-03-31T14:34:21.529Z,14.47
2019-03-31T14:36:51.151Z,14.13
2019-03-31T14:39:21.088Z,14.20
2019-03-31T14:41:50.822Z,16.02
2019-03-31T14:44:20.462Z,15.98
2019-03-31T14:46:50.176Z,14.43
2019-03-31T14:49:20.018Z,16.80
2019-03-31T14:51:49.921Z,18.02
2019-03-31T14:54:19.680Z,17.62
2019-03-31T14:56:49.305Z,16.13
2019-03-31T14:59:19.547Z,16.55
2019-03-31T15:01:49.282Z,16.87
2019-03-31T15:04:18.882Z,17.62
2019-03-31T15:06:48.541Z,17.30
2019-03-31T15:09:18.267Z,17.87
2019-03-31T15:11:47.996Z,17.80
2019-03-31T15:14:17.822Z,17.95
2019-03-31T15:16:48.564Z,17.67
2019-03-31T15:19:18.310Z,16.15
2019-03-31T15:21:48.038Z,15.30
2019-03-31T15:24:17.767Z,15.55
2019-03-31T15:26:47.799Z,15.38
2019-03-31T15:29:17.537Z,15.93
2019-03-31T15:31:47.365Z,17.15
2019-03-31T15:34:17.095Z,17.67
2019-03-31T15:36:46.871Z,16.40
2019-03-31T15:39:16.573Z,20.12
2019-03-31T15:41:46.300Z,28.30
2019-03-31T15:44:17.039Z,24.27
2019-03-31T15:46:46.673Z,22.93
2019-03-31T15:49:16.302Z,21.17
2019-03-31T15:51:45.984Z,16.90
2019-03-31T15:54:16.684Z,15.03
2019-03-31T15:56:46.422Z,14.10
2019-03-31T15:59:16.135Z,19.67
2019-03-31T16:01:45.842Z,25.73
2019-03-31T16:04:15.597Z,17.90
2019-03-31T16:06:46.355Z,16.57
2019-03-31T16:09:23.263Z,18.77
2019-03-31T16:11:53.580Z,20.52
2019-03-31T16:14:19.530Z,18.90
2019-03-31T16:16:49.151Z,16.45
2019-03-31T16:19:18.790Z,19.32
2019-03-31T16:21:51.171Z,17.77
2019-03-31T16:24:22.539Z,48.70
2019-03-31T16:26:53.003Z,33.83
2019-03-31T16:31:51.940Z,21.70
2019-03-31T16:34:21.670Z,36.70
2019-03-31T16:36:51.302Z,34.53
2019-03-31T16:39:20.938Z,34.20
2019-03-31T16:41:50.656Z,34.13
2019-03-31T16:44:20.290Z,45.60
2019-03-31T16:46:50.120Z,42.43
2019-03-31T16:49:20.256Z,41.37
2019-03-31T16:51:50.085Z,67.13
2019-03-31T16:54:19.815Z,126.90
2019-03-31T16:56:49.648Z,74.00
2019-03-31T16:59:19.386Z,43.08
2019-03-31T17:01:48.968Z,41.07
2019-03-31T17:04:18.746Z,57.53
2019-03-31T17:06:48.362Z,68.20
2019-03-31T17:09:17.998Z,74.73
2019-03-31T17:11:47.729Z,42.23
2019-03-31T17:14:17.353Z,40.13
2019-03-31T17:16:46.945Z,43.37
2019-03-31T17:19:16.712Z,45.00
2019-03-31T17:21:46.342Z,46.13
2019-03-31T17:24:16.072Z,151.13
2019-03-31T17:26:45.805Z,74.60
2019-03-31T17:29:15.623Z,58.25
2019-03-31T17:31:45.356Z,80.90
2019-03-31T17:34:15.017Z,159.57
2019-03-31T17:36:44.960Z,176.90
2019-03-31T17:39:15.674Z,135.85
2019-03-31T17:41:45.519Z,92.42
2019-03-31T17:44:15.137Z,67.95
2019-03-31T17:46:44.870Z,78.73
2019-03-31T17:49:14.602Z,79.75
2019-03-31T17:51:44.230Z,58.07
2019-03-31T17:54:13.861Z,47.80
2019-03-31T17:56:43.587Z,50.30
2019-03-31T17:59:13.213Z,40.40
2019-03-31T18:01:42.944Z,35.93
2019-03-31T18:04:12.467Z,42.93
2019-03-31T18:06:42.110Z,37.13
2019-03-31T18:09:11.812Z,35.27
2019-03-31T18:11:41.676Z,36.03
2019-03-31T18:14:11.340Z,32.15
2019-03-31T18:16:41.011Z,31.33
2019-03-31T18:19:10.859Z,33.63
2019-03-31T18:21:40.675Z,30.77
2019-03-31T18:24:10.411Z,34.03
2019-03-31T18:26:40.144Z,69.57
2019-03-31T18:29:09.975Z,163.37
2019-03-31T18:31:39.918Z,76.75
2019-03-31T18:34:11.434Z,50.15
2019-03-31T18:36:41.628Z,76.95
2019-03-31T18:39:11.208Z,91.47
2019-03-31T18:41:40.779Z,75.60
2019-03-31T18:44:10.504Z,75.12
2019-03-31T18:46:40.058Z,71.62
2019-03-31T18:49:09.672Z,121.75
2019-03-31T18:51:39.482Z,104.40
2019-03-31T18:54:13.449Z,86.47
2019-03-31T18:56:47.097Z,72.03
2019-03-31T18:59:18.293Z,54.30
2019-03-31T19:02:04.695Z,58.68
2019-03-31T19:04:52.228Z,74.72
2019-03-31T19:07:39.951Z,107.85
2019-03-31T19:10:27.310Z,60.52
2019-03-31T19:13:07.877Z,50.33
2019-03-31T19:15:41.459Z,41.88
2019-03-31T19:18:15.647Z,44.05
2019-03-31T19:21:11.511Z,42.30
2019-03-31T19:23:39.295Z,46.15
2019-03-31T19:26:27.045Z,39.92
2019-03-31T19:29:17.135Z,38.63
2019-03-31T19:31:47.549Z,40.95
2019-03-31T19:34:34.671Z,45.52
2019-03-31T19:37:20.755Z,42.43
2019-03-31T19:40:08.079Z,45.50
2019-03-31T19:42:39.215Z,55.12
2019-03-31T19:45:10.758Z,45.73
2019-03-31T19:47:51.582Z,79.03
2019-03-31T19:50:31.521Z,90.97
2019-03-31T19:53:02.721Z,91.85
2019-03-31T19:55:36.819Z,82.62
2019-03-31T19:58:19.875Z,36.28
2019-03-31T20:00:59.916Z,59.03
2019-03-31T20:03:40.293Z,44.40
2019-03-31T20:06:23.824Z,60.95
2019-03-31T20:08:54.981Z,36.83
2019-03-31T20:11:32.078Z,86.10
2019-03-31T20:14:06.315Z,91.63
2019-03-31T20:16:37.574Z,103.32
2019-03-31T20:19:11.696Z,117.75
2019-03-31T20:21:45.730Z,65.62
2019-03-31T20:24:33.140Z,76.55
2019-03-31T20:27:10.755Z,49.08
2019-03-31T20:29:41.923Z,57.65
2019-03-31T20:32:25.457Z,96.35
2019-03-31T20:35:08.696Z,143.02
2019-03-31T20:37:56.323Z,103.07
2019-03-31T20:40:45.791Z,82.00
2019-03-31T20:43:19.811Z,68.87
2019-03-31T20:45:50.563Z,44.88
2019-03-31T20:48:20.308Z,45.00
2019-03-31T20:50:50.130Z,32.88
2019-03-31T20:53:19.859Z,57.85
2019-03-31T20:55:49.482Z,95.73
2019-03-31T20:58:19.214Z,51.53
2019-03-31T21:00:48.850Z,72.32
2019-03-31T21:03:18.789Z,62.93
2019-03-31T21:05:48.405Z,52.98
2019-03-31T21:08:18.209Z,61.67
2019-03-31T21:10:48.087Z,54.00
2019-03-31T21:13:17.808Z,45.67
2019-03-31T21:15:47.533Z,47.70
2019-03-31T21:18:17.723Z,57.23
2019-03-31T21:20:47.409Z,45.48
2019-03-31T21:23:17.038Z,56.45
2019-03-31T21:25:46.659Z,53.68
2019-03-31T21:28:16.183Z,68.17
2019-03-31T21:30:45.711Z,35.95
2019-03-31T21:33:15.452Z,34.90
2019-03-31T21:35:48.380Z,36.88
2019-03-31T21:38:16.539Z,36.50
2019-03-31T21:40:47.064Z,36.77
2019-03-31T21:43:17.054Z,36.88
2019-03-31T21:45:47.976Z,33.05
2019-03-31T21:48:19.150Z,33.35
2019-03-31T21:50:49.381Z,32.58
2019-03-31T21:53:21.767Z,35.98
2019-03-31T21:55:52.009Z,35.85
2019-03-31T21:58:23.481Z,33.13
2019-03-31T22:00:54.649Z,32.00
2019-03-31T22:03:25.426Z,33.28
2019-03-31T22:05:55.020Z,40.17
2019-03-31T22:08:25.559Z,38.88
2019-03-31T22:15:57.629Z,37.58
2019-03-31T22:18:28.635Z,31.33
2019-03-31T22:20:58.316Z,28.80
2019-03-31T22:23:27.739Z,27.77
2019-03-31T22:25:57.983Z,27.20
2019-03-31T22:28:29.167Z,26.62
2019-03-31T22:31:00.102Z,26.23
2019-03-31T22:33:30.152Z,26.05
2019-03-31T22:36:19.298Z,27.50
2019-03-31T22:38:50.556Z,27.50
2019-03-31T22:41:21.131Z,26.30
2019-03-31T22:43:50.530Z,28.02
2019-03-31T22:46:21.400Z,26.65
2019-03-31T22:48:51.115Z,27.02
2019-03-31T22:51:21.974Z,27.35
2019-03-31T22:53:52.524Z,26.85
2019-03-31T22:56:23.990Z,26.87
2019-03-31T22:58:54.750Z,26.97
2019-03-31T23:01:25.318Z,26.73
2019-03-31T23:03:56.160Z,25.25
2019-03-31T23:06:25.874Z,26.33
2019-03-31T23:08:55.817Z,26.23
2019-03-31T23:11:27.908Z,25.12
2019-03-31T23:13:59.056Z,25.05
2019-03-31T23:16:29.290Z,25.25
2019-03-31T23:18:58.721Z,24.43
2019-03-31T23:21:28.784Z,23.05
2019-03-31T23:23:58.181Z,24.35
2019-03-31T23:26:28.831Z,24.05
2019-03-31T23:28:58.782Z,23.38
2019-03-31T23:31:29.221Z,25.10
2019-03-31T23:33:58.645Z,24.87
2019-03-31T23:36:29.499Z,23.30
2019-03-31T23:39:00.154Z,24.37
2019-03-31T23:43:59.291Z,23.55
2019-03-31T23:46:29.236Z,24.72
2019-03-31T23:48:59.685Z,25.17
2019-03-31T23:51:30.222Z,24.40
2019-03-31T23:53:59.650Z,23.85
2019-03-31T23:56:32.263Z,25.30
2019-03-31T23:59:02.086Z,23.75
